Nadunumu Airport

NDN · Northern Province, Papua-Neuguinea

4. Oktober 2022

Uhrzeit Code Wetter Temp. Sichtweite Wolkendecke Wind METAR/SPECI
23:00
V
25 °C 10 km+ - Var Var 3 kt METAR AYPY 041300Z VRB03KT 9999 SKC 25/23 Q1009
22:00
V
25 °C 10 km+ - Var Var 2 kt METAR AYPY 041200Z VRB02KT 9999 FEW040 25/24 Q1009
21:00
V
26 °C 10 km+ - 130° 130° 4 kt METAR AYPY 041100Z 13004KT 9999 FEW030 26/24 Q1009
20:00
V
26 °C 10 km+ - Var Var 3 kt METAR AYPY 041000Z VRB03KT 9999 FEW030 26/24 Q1009
19:00
V
26 °C 10 km+ - Var Var 3 kt METAR AYPY 040900Z VRB03KT 9999 SCT050 26/24 Q1008 RMK/SHRA TO THE EAST
18:00
V
29 °C 10 km+ - 030° 030° 15 kt METAR AYPY 040800Z 03015KT 9999 FU HZ SCT050 29/22 Q1007 RMK/RASH TO THE E
17:00
V
31 °C 10 km+ - 150° 150° 15 kt METAR AYPY 040700Z 15015KT 9999 HZ SCT030 SCT050 31/26 Q1006 RMK
16:00
V
31 °C 10 km+ - 160° 160° 15 kt METAR AYPY 040600Z 16015KT 9999 HZ SCT030 SCT 050 31/25 Q1006 RMK
15:00
V
32 °C 10 km+ - 160° 160° 10 kt METAR AYPY 040500Z 16010KT 9999 HZ SCT030 32/25 Q1006 RMK
14:00
V
33 °C 10 km+ - 170° 170° 10 kt METAR AYPY 040400Z 17010KT 9999 HZ SCT030 33/25 Q1006 RMKS/CB TO THE N AND E
13:00
V
33 °C 10 km+ - 140° 140° 10 kt METAR AYPY 040300Z 14010KT 9999 HZ SCT030 33/25 Q1007. RMK
12:00
V
33 °C 10 km+ - 130° 130° 11 kt METAR AYPY 040200Z 13011KT 9999 HZ SCT030 33/25 Q1008 RMK/CB TO N AND E=
11:00
V
32 °C 10 km+ 4.000 ft 140° 140° 10 - 15 kt METAR AYPY 040100Z 14010G15KT 9999 HZ SCT030 BKN040 32/25 Q1009
10:00
V
31 °C 10 km+ 4.000 ft 140° 140° 5 - 10 kt METAR AYPY 040000Z 14005G10KT 9999 FUHZ FEW030 BKN040 31/24 Q1010
09:00
V
30 °C 10 km+ - 220° 220° 3 kt METAR AYPY 032300Z 22003KT 9999 SCT035 30/25 Q1010
07:00
V
26 °C 10 km+ 3.500 ft Var Var 3 kt METAR AYPY 032100Z VRB03KT 9999 FUHZ OVC035 26/25 Q1009
06:00
V
25 °C 10 km+ 3.000 ft Var Var 3 kt METAR AYPY 032000Z VRB03KT 9999 OVC030 25/24 Q1008=
04:00
V
25 °C 10 km+ - Var Var 3 kt METAR AYPY 031800Z VRB03KT 9999 SCT030 25/24 Q1007=
03:00
V
24 °C 10 km+ - 320° 320° 5 kt METAR AYPY 031700Z 32005KT 9999 FEW100 24/24 Q1007
02:00
V
25 °C 10 km+ - 320° 320° 5 kt METAR AYPY 031600Z 32005KT 9999 FEW080 25/24 Q1007
01:00
V
25 °C 10 km+ - Var Var 2 kt METAR AYPY 031500Z VRB02KT 9999 FEW070 25/24 Q1007
00:00
V
25 °C 10 km+ - Var Var 3 kt METAR AYPY 031400Z VRB03KT 9999 SCT100 25/24 Q1008

3. Oktober 2022

Uhrzeit Code Wetter Temp. Sichtweite Wolkendecke Wind METAR/SPECI
23:00
V
25 °C 10 km+ - Var Var 4 kt METAR AYPY 031300Z VRB04KT 9999 SCT100 25/24 Q1008
22:00
V
26 °C 10 km+ - Var Var 4 kt METAR AYPY 031200Z VRB04KT 9999 SCT100 26/24 Q1008
21:00
V
25 °C 10 km+ - Var Var 4 kt METAR AYPY 031100Z VRB04KT 9999 SCT100 25/24 Q1008
20:00
V
27 °C 10 km+ - Var Var 4 kt METAR AYPY 031000Z VRB04KT 9999 SCT100 27/24 Q1008
19:00
V
26 °C 10 km+ 4.000 ft 110° 110° 7 kt METAR AYPY 030900Z 11007KT 9999 FEW015 BKN040 26/24 Q1007
18:00
V
28 °C 10 km+ 4.000 ft 140° 140° 15 kt METAR AYPY 030800Z 14015KT 9999 FUHZ SCT030 BKN040 28/26 Q1007 RMK/ SH IN AREA
17:00
V
30 °C 10 km+ 5.000 ft 140° 140° 15 kt METAR AYPY 030700Z 14015KT 9999 FU HZ SCT030 BKN050 30/25 Q1005 RMK
16:00
V
30 °C 10 km+ - 140° 140° 15 kt METAR AYPY 030600Z 14015KT 9999 FUHZ SCT030 SCT050 30/26 Q1005 RMK/CB ASSOCIATED WITH SHRA TO E
15:00
V
33 °C 10 km+ - 160° 160° 15 kt METAR AYPY 030500Z 16015KT 9999 HZ SCT030 33/25 Q1005
14:00
V
32 °C 10 km+ - 160° 160° 15 kt METAR AYPY 030400Z 16015KT 9999 HZ FEW020 SCT030 32/25 Q1006
13:00
V
33 °C 10 km+ - 160° 160° 15 kt METAR AYPY 030300Z 16015KT 9999 HZ FEW020 SCT030 33/25 Q1006
12:00
V
32 °C 10 km+ - 160° 160° 15 kt METAR AYPY 030200Z 16015KT 9999 HZ SCT030 32/25 Q1007=
11:00
V
32 °C 10 km+ - 150° 150° 10 kt METAR AYPY 030100Z 15010KT 9999 HZ SCT030 32/25 Q1008
10:00
V
33 °C 10 km+ - 170° 170° 6 kt METAR AYPY 030000Z 17006KT 9999 HZ SCT030 33/25 Q1009
09:00
V
30 °C 10 km+ - Var Var 3 kt METAR AYPY 022300Z VRB03KT 9999 HZ FEW035 30/24 Q1009
08:00
V
28 °C 10 km+ - Var Var 4 kt METAR AYPY 022200Z VRB04KT 9999 HZ FEW040 28/24 Q1009
07:00
V
25 °C 10 km+ - Var Var 3 kt METAR AYPY 022100Z VRB03KT 9999 HZ SCT060 25/24 Q1009
06:00
V
25 °C 10 km+ - 340° 340° 6 kt METAR AYPY 022000Z 34006KT 9999 SCT050 25/24 Q1009
05:00
V
25 °C 10 km+ - 320° 320° 5 kt METAR AYPY 021900Z 32005KT 9999 FEW030 SCT050 25/24 Q1008
04:00
V
24 °C 10 km+ - 330° 330° 5 kt METAR AYPY 021800Z 33005KT 9999 FEW050 24/24 Q1008
03:00
V
25 °C 10 km+ - 320° 320° 4 kt METAR AYPY 021700Z 32004KT 9999 FEW050 25/24 Q1007
02:00
V
25 °C 10 km+ - 130° 130° 5 kt METAR AYPY 021600Z 13005KT 9999 FEW050 25/24 Q1007
01:00
V
25 °C 10 km+ - 150° 150° 6 kt METAR AYPY 021500Z 15006KT 9999 FEW050 25/24 Q1008
00:00
V
26 °C 10 km+ - 130° 130° 5 kt METAR AYPY 021400Z 13005KT 9999 FEW050 26/24 Q1008=
Ältere Daten

Wir und Dritte verfolgen dein Internetverhalten auf unserer Website mit Cookies. Wenn du fortfährst, gehen wir davon aus, dass du mit unserer Cookie-Richtlinie einverstanden bist. Mehr erfahren